Time;durP1;ratioP1;P1;durP2;ratioP2;P2;SDS_P1;SDS_P2;PMS_P1;PMS_P2;Temp;Humidity;BMP_temperature;BMP_pressure;BME280_temperature;BME280_humidity;BME280_pressure;Samples;Min_cycle;Max_cycle;Signal;HPM_P1;HPM_P2
2022/10/20 00:01:58;;;;;;;2.10;1.20;;;13.40;99.90;;;;;;5037654;28;20488;-75
2022/10/20 00:04:25;;;;;;;2.20;1.50;;;13.40;99.90;;;;;;5034278;28;20444;-74
2022/10/20 00:06:52;;;;;;;2.40;1.40;;;13.40;99.90;;;;;;5037049;28;20484;-75
2022/10/20 00:09:19;;;;;;;2.23;1.40;;;13.40;99.90;;;;;;5033541;28;20445;-74
2022/10/20 00:11:46;;;;;;;3.13;1.50;;;13.30;99.90;;;;;;5037038;28;20449;-75
2022/10/20 00:14:15;;;;;;;2.90;1.33;;;13.20;99.90;;;;;;5034147;28;20490;-74
2022/10/20 00:16:41;;;;;;;6.50;1.20;;;13.30;99.90;;;;;;5036217;28;20947;-74
2022/10/20 00:19:09;;;;;;;3.77;1.20;;;13.20;99.90;;;;;;5033145;28;20512;-74
2022/10/20 00:21:36;;;;;;;2.53;1.13;;;13.20;99.90;;;;;;5035222;28;20970;-74
2022/10/20 00:24:03;;;;;;;2.17;1.10;;;13.20;99.90;;;;;;5031784;28;20530;-74
2022/10/20 00:26:32;;;;;;;2.07;1.20;;;13.20;99.90;;;;;;5035117;28;20509;-75
2022/10/20 00:29:00;;;;;;;1.87;1.20;;;13.20;99.90;;;;;;5035956;28;20887;-76
2022/10/20 00:31:29;;;;;;;3.13;1.43;;;13.10;99.90;;;;;;5037294;28;20448;-76
2022/10/20 00:33:56;;;;;;;2.10;1.30;;;13.10;99.90;;;;;;5037811;28;20456;-76
2022/10/20 00:36:23;;;;;;;2.03;1.47;;;13.10;99.90;;;;;;5037771;28;20456;-76
2022/10/20 00:38:52;;;;;;;3.70;1.87;;;13.10;99.90;;;;;;5036199;28;20806;-75
2022/10/20 00:41:20;;;;;;;2.80;1.37;;;13.10;99.90;;;;;;5035247;28;20603;-75
2022/10/20 00:43:50;;;;;;;2.30;1.13;;;13.10;99.90;;;;;;5038053;28;20452;-75
2022/10/20 00:46:20;;;;;;;2.87;1.33;;;13.00;99.90;;;;;;5033394;28;20550;-75
2022/10/20 00:48:52;;;;;;;4.83;1.70;;;13.00;99.90;;;;;;5036375;28;20479;-75
2022/10/20 00:51:23;;;;;;;4.23;1.33;;;13.00;99.90;;;;;;5032951;28;20526;-75
2022/10/20 00:53:53;;;;;;;1.90;1.20;;;13.00;99.90;;;;;;5036057;28;20514;-75
2022/10/20 00:56:21;;;;;;;2.87;1.33;;;12.90;99.90;;;;;;5032709;28;20487;-75
2022/10/20 00:58:48;;;;;;;3.37;1.30;;;12.90;99.90;;;;;;5035570;28;20506;-74
2022/10/20 01:01:16;;;;;;;4.90;1.60;;;13.00;99.90;;;;;;5033949;28;20484;-75
2022/10/20 01:03:46;;;;;;;2.60;1.30;;;13.10;99.90;;;;;;5036742;28;20514;-75
2022/10/20 01:06:17;;;;;;;3.83;2.33;;;13.00;99.90;;;;;;5034496;28;20483;-75
2022/10/20 01:08:44;;;;;;;1.83;1.03;;;12.90;99.90;;;;;;5037127;28;20515;-75
2022/10/20 01:11:18;;;;;;;2.73;2.00;;;12.70;99.90;;;;;;5035306;28;20495;-74
2022/10/20 01:13:59;;;;;;;7.77;2.43;;;12.60;99.90;;;;;;5036663;28;20452;-75
2022/10/20 01:16:34;;;;;;;2.30;1.30;;;12.60;99.90;;;;;;5037372;28;20466;-75
2022/10/20 01:19:10;;;;;;;3.00;1.53;;;12.60;99.90;;;;;;5034320;28;20581;-74
2022/10/20 01:22:05;;;;;;;4.47;1.57;;;12.60;99.90;;;;;;5036886;28;20598;-74
2022/10/20 01:24:55;;;;;;;3.53;1.70;;;12.60;99.90;;;;;;5035391;28;20468;-75
2022/10/20 01:27:42;;;;;;;3.40;1.70;;;12.60;99.90;;;;;;5037677;28;20880;-75
2022/10/20 01:30:12;;;;;;;3.77;1.40;;;12.60;99.90;;;;;;5034561;28;20479;-75
2022/10/20 01:32:55;;;;;;;2.73;1.20;;;12.60;99.90;;;;;;5036419;28;20494;-75
2022/10/20 01:35:30;;;;;;;1.93;1.40;;;12.60;99.90;;;;;;5033834;28;20518;-75
2022/10/20 01:38:06;;;;;;;3.80;1.60;;;12.60;99.90;;;;;;5037645;28;20447;-75
2022/10/20 01:40:41;;;;;;;2.60;1.40;;;12.50;99.90;;;;;;5034157;28;20451;-75
2022/10/20 01:43:12;;;;;;;1.90;1.30;;;12.50;99.90;;;;;;5037399;28;20521;-75
2022/10/20 01:45:43;;;;;;;3.03;1.40;;;12.50;99.90;;;;;;5034670;28;20460;-75
2022/10/20 01:48:13;;;;;;;2.63;1.80;;;12.60;99.90;;;;;;5037561;28;20463;-74
2022/10/20 01:50:42;;;;;;;2.40;1.93;;;12.60;99.90;;;;;;5036002;28;20498;-75
2022/10/20 01:53:10;;;;;;;3.53;1.50;;;12.60;99.90;;;;;;5040497;28;20447;-74
2022/10/20 01:55:37;;;;;;;3.50;2.20;;;12.70;99.90;;;;;;5039371;28;20464;-74
2022/10/20 01:58:25;;;;;;;3.10;1.57;;;12.70;99.90;;;;;;5041055;28;20452;-74
2022/10/20 02:00:56;;;;;;;3.30;1.60;;;12.70;99.90;;;;;;5037352;28;20594;-74
2022/10/20 02:03:51;;;;;;;3.63;1.97;;;12.70;99.90;;;;;;5039781;28;20576;-74
2022/10/20 02:06:34;;;;;;;4.50;1.90;;;12.80;99.90;;;;;;5037297;28;20460;-74
2022/10/20 02:09:05;;;;;;;3.97;1.90;;;12.70;99.90;;;;;;5037527;28;20472;-73
2022/10/20 02:11:40;;;;;;;3.93;2.03;;;12.60;99.90;;;;;;5040454;28;20440;-74
2022/10/20 02:14:11;;;;;;;3.20;1.80;;;12.50;99.90;;;;;;5038448;28;20448;-75
2022/10/20 02:16:42;;;;;;;4.37;1.87;;;12.40;99.90;;;;;;5040823;28;20884;-74
2022/10/20 02:19:13;;;;;;;5.43;1.87;;;12.40;99.90;;;;;;5036401;28;20448;-75
2022/10/20 02:21:40;;;;;;;3.40;2.10;;;12.30;99.90;;;;;;5039634;28;20545;-74
2022/10/20 02:24:09;;;;;;;3.50;1.63;;;12.30;99.90;;;;;;5037284;28;20452;-74
2022/10/20 02:26:39;;;;;;;3.37;1.30;;;12.30;99.90;;;;;;5040341;28;20541;-74
2022/10/20 02:29:14;;;;;;;3.57;2.07;;;12.30;99.90;;;;;;5038644;28;20459;-75
2022/10/20 02:31:41;;;;;;;6.00;2.00;;;12.30;99.90;;;;;;5041259;28;20490;-75
2022/10/20 02:34:09;;;;;;;4.80;1.77;;;12.40;99.90;;;;;;5038037;28;20946;-74
2022/10/20 02:36:39;;;;;;;4.10;1.80;;;12.30;99.90;;;;;;5041005;28;20433;-75
2022/10/20 02:39:06;;;;;;;3.67;2.20;;;12.40;99.90;;;;;;5036323;28;20448;-74
2022/10/20 02:41:33;;;;;;;2.97;1.67;;;12.50;99.90;;;;;;5040369;28;20506;-75
2022/10/20 02:44:00;;;;;;;6.13;1.70;;;12.50;99.90;;;;;;5038374;28;20899;-74
2022/10/20 02:46:29;;;;;;;3.50;1.80;;;12.50;99.90;;;;;;5038066;28;20526;-75
2022/10/20 02:48:55;;;;;;;8.00;2.63;;;12.60;99.90;;;;;;5040224;28;20444;-75
2022/10/20 02:51:22;;;;;;;4.33;1.50;;;12.60;99.90;;;;;;5037825;28;20456;-75
2022/10/20 02:53:49;;;;;;;4.00;2.50;;;12.60;99.90;;;;;;5039912;28;20788;-75
2022/10/20 02:56:16;;;;;;;7.53;1.93;;;12.70;99.90;;;;;;5036098;28;20433;-75
2022/10/20 02:58:43;;;;;;;5.03;2.63;;;12.70;99.90;;;;;;5039702;28;20444;-75
2022/10/20 03:01:11;;;;;;;4.27;1.50;;;12.60;99.90;;;;;;5037333;28;20510;-74
2022/10/20 03:03:39;;;;;;;3.50;1.73;;;12.70;99.90;;;;;;5039669;28;20566;-75
2022/10/20 03:06:10;;;;;;;2.90;2.20;;;12.70;99.90;;;;;;5037167;28;20463;-75
2022/10/20 03:08:37;;;;;;;4.17;1.83;;;12.70;99.90;;;;;;5039551;28;20457;-75
2022/10/20 03:11:04;;;;;;;3.00;1.83;;;12.60;99.90;;;;;;5036777;28;20468;-75
2022/10/20 03:13:31;;;;;;;5.00;2.00;;;12.60;99.90;;;;;;5039328;28;20802;-75
2022/10/20 03:15:58;;;;;;;4.43;2.37;;;12.60;99.90;;;;;;5036985;28;20927;-75
2022/10/20 03:18:25;;;;;;;3.73;2.00;;;12.60;99.90;;;;;;5039416;28;20502;-75
2022/10/20 03:20:54;;;;;;;3.93;2.20;;;12.50;99.90;;;;;;5037241;28;20510;-75
2022/10/20 03:23:21;;;;;;;5.77;2.90;;;12.50;99.90;;;;;;5039218;28;20488;-75
2022/10/20 03:25:48;;;;;;;5.77;1.90;;;12.40;99.90;;;;;;5036483;28;20514;-75
2022/10/20 03:28:16;;;;;;;3.70;1.60;;;12.40;99.90;;;;;;5039218;28;20460;-75
2022/10/20 03:30:45;;;;;;;2.83;1.60;;;12.30;99.90;;;;;;5037254;28;20892;-75
2022/10/20 03:33:12;;;;;;;6.70;3.03;;;12.40;99.90;;;;;;5039430;28;20506;-75
2022/10/20 03:35:39;;;;;;;2.93;1.83;;;12.50;99.90;;;;;;5035894;28;20515;-75
2022/10/20 03:38:07;;;;;;;4.30;2.03;;;12.60;99.90;;;;;;5040312;28;20452;-75
2022/10/20 03:40:34;;;;;;;7.83;2.70;;;12.70;99.90;;;;;;5037814;28;20970;-75
2022/10/20 03:43:01;;;;;;;6.47;2.60;;;12.70;99.90;;;;;;5040080;28;20542;-75
2022/10/20 03:45:28;;;;;;;3.30;1.83;;;12.70;99.90;;;;;;5035853;28;20525;-75
2022/10/20 03:47:55;;;;;;;2.93;1.67;;;12.70;99.90;;;;;;5041372;28;20444;-75
2022/10/20 03:50:22;;;;;;;4.53;1.40;;;12.70;99.90;;;;;;5036675;28;20456;-75
2022/10/20 03:52:49;;;;;;;6.40;3.30;;;12.80;99.90;;;;;;5039241;28;20448;-76
2022/10/20 03:55:19;;;;;;;5.80;2.27;;;12.90;99.90;;;;;;5036093;28;20881;-75
2022/10/20 03:57:46;;;;;;;5.07;1.97;;;12.90;99.90;;;;;;5039063;28;20816;-75
2022/10/20 04:00:13;;;;;;;5.13;2.83;;;12.90;99.90;;;;;;5036169;28;20456;-75
2022/10/20 04:02:42;;;;;;;2.93;2.07;;;12.90;99.90;;;;;;5038561;28;20771;-75
2022/10/20 04:05:12;;;;;;;3.43;1.33;;;13.00;99.90;;;;;;5036415;28;20447;-76
2022/10/20 04:07:39;;;;;;;5.23;1.70;;;13.00;99.90;;;;;;5039060;28;20433;-76
2022/10/20 04:10:07;;;;;;;2.93;1.60;;;13.00;99.90;;;;;;5036300;28;20776;-76
2022/10/20 04:12:35;;;;;;;10.40;2.57;;;13.00;99.90;;;;;;5038588;28;20448;-75
2022/10/20 04:15:03;;;;;;;5.37;2.20;;;13.00;99.90;;;;;;5034962;28;20488;-76
2022/10/20 04:17:31;;;;;;;6.97;3.27;;;12.90;99.90;;;;;;5039011;28;20452;-76
2022/10/20 04:19:58;;;;;;;4.20;2.10;;;12.80;99.90;;;;;;5035063;28;20460;-76
2022/10/20 04:22:25;;;;;;;4.43;2.30;;;12.80;99.90;;;;;;5037948;28;20488;-76
2022/10/20 04:24:51;;;;;;;4.37;2.33;;;12.80;99.90;;;;;;5038007;28;20517;-76
2022/10/20 04:27:18;;;;;;;4.27;3.03;;;12.90;99.90;;;;;;5034685;28;20456;-76
2022/10/20 04:29:48;;;;;;;3.43;1.97;;;12.90;99.90;;;;;;5035760;28;20443;-76
2022/10/20 04:32:15;;;;;;;3.67;1.60;;;13.00;99.90;;;;;;5031235;28;20518;-75
2022/10/20 04:34:42;;;;;;;5.60;2.53;;;12.90;99.90;;;;;;5034248;28;20456;-76
2022/10/20 04:37:09;;;;;;;4.13;2.20;;;12.90;99.90;;;;;;5034336;28;20463;-76
2022/10/20 04:39:36;;;;;;;3.70;2.00;;;12.90;99.90;;;;;;5036099;28;20515;-76
2022/10/20 04:42:03;;;;;;;4.63;2.60;;;12.90;99.90;;;;;;5032124;28;20505;-77
2022/10/20 04:44:30;;;;;;;4.50;2.03;;;12.90;99.90;;;;;;5034986;28;20445;-76
2022/10/20 04:46:58;;;;;;;5.80;2.00;;;12.90;99.90;;;;;;5033221;28;20661;-75
2022/10/20 04:49:26;;;;;;;3.60;1.63;;;12.90;99.90;;;;;;5032768;28;20448;-75
2022/10/20 04:51:52;;;;;;;4.80;2.00;;;13.00;99.90;;;;;;5030138;28;20946;-75
2022/10/20 04:54:19;;;;;;;3.93;2.53;;;13.00;99.90;;;;;;5034762;28;20498;-75
2022/10/20 04:56:46;;;;;;;3.90;2.03;;;13.10;99.90;;;;;;5032781;28;20459;-75
2022/10/20 04:59:13;;;;;;;6.40;3.60;;;13.10;99.90;;;;;;5035953;28;20430;-76
2022/10/20 05:01:40;;;;;;;5.07;2.83;;;13.00;99.90;;;;;;5033112;28;20530;-75
2022/10/20 05:04:09;;;;;;;6.27;1.90;;;13.10;99.90;;;;;;5036502;28;20511;-75
2022/10/20 05:06:36;;;;;;;4.80;2.70;;;13.00;99.90;;;;;;5035586;28;20456;-76
2022/10/20 05:09:05;;;;;;;3.47;2.30;;;13.00;99.90;;;;;;5037970;28;20436;-75
2022/10/20 05:11:36;;;;;;;5.60;1.60;;;13.00;99.90;;;;;;5035257;28;20958;-75
2022/10/20 05:14:03;;;;;;;3.17;1.90;;;13.10;99.90;;;;;;5037285;28;20479;-75
2022/10/20 05:16:30;;;;;;;5.57;3.37;;;13.00;99.90;;;;;;5034199;28;20452;-75
2022/10/20 05:18:57;;;;;;;6.03;2.50;;;13.10;99.90;;;;;;5036843;28;20445;-75
2022/10/20 05:21:28;;;;;;;4.73;2.97;;;13.00;99.90;;;;;;5032729;28;20896;-75
2022/10/20 05:23:56;;;;;;;4.03;2.00;;;13.00;99.90;;;;;;5035113;28;20520;-75
2022/10/20 05:26:23;;;;;;;5.23;2.43;;;12.90;99.90;;;;;;5029904;28;20939;-75
2022/10/20 05:28:52;;;;;;;4.27;2.03;;;12.80;99.90;;;;;;5034582;28;20950;-75
2022/10/20 05:31:22;;;;;;;4.23;2.20;;;12.70;99.90;;;;;;5031516;28;20452;-75
2022/10/20 05:33:51;;;;;;;4.47;2.57;;;12.70;99.90;;;;;;5033080;28;20499;-75
2022/10/20 05:36:20;;;;;;;5.57;2.73;;;12.60;99.90;;;;;;5031339;28;20896;-75
2022/10/20 05:38:49;;;;;;;10.53;2.80;;;12.70;99.90;;;;;;5032980;28;20534;-75
2022/10/20 05:41:18;;;;;;;5.20;2.67;;;12.70;99.90;;;;;;5028395;28;20454;-75
2022/10/20 05:43:49;;;;;;;7.17;2.80;;;12.60;99.90;;;;;;5031493;28;20491;-76
2022/10/20 05:46:17;;;;;;;6.23;2.10;;;12.60;99.90;;;;;;5031397;28;20506;-76
2022/10/20 05:48:44;;;;;;;6.00;2.50;;;12.60;99.90;;;;;;5034332;28;20518;-75
2022/10/20 05:51:13;;;;;;;5.00;2.90;;;12.60;99.90;;;;;;5033651;28;20444;-75
2022/10/20 05:53:40;;;;;;;4.40;2.30;;;12.60;99.90;;;;;;5034038;28;20444;-76
2022/10/20 05:56:11;;;;;;;7.03;3.60;;;12.60;99.90;;;;;;5033868;28;20761;-75
2022/10/20 05:58:39;;;;;;;6.43;3.37;;;12.60;99.90;;;;;;5034986;28;20452;-77
2022/10/20 06:01:08;;;;;;;5.83;2.40;;;12.50;99.90;;;;;;5032810;28;20884;-77
2022/10/20 06:03:35;;;;;;;7.10;3.60;;;12.50;99.90;;;;;;5034268;28;20484;-77
2022/10/20 06:06:04;;;;;;;6.10;3.60;;;12.40;99.90;;;;;;5035771;28;21089;-75
2022/10/20 06:08:32;;;;;;;16.90;8.87;;;12.40;99.90;;;;;;5033768;28;20456;-75
2022/10/20 06:11:03;;;;;;;12.50;8.50;;;12.40;99.90;;;;;;5035692;28;20468;-75
2022/10/20 06:13:33;;;;;;;6.80;3.07;;;12.40;99.90;;;;;;5032089;28;20502;-76
2022/10/20 06:16:02;;;;;;;5.50;2.63;;;12.40;99.90;;;;;;5035880;28;20476;-75
2022/10/20 06:18:29;;;;;;;7.07;2.43;;;12.40;99.90;;;;;;5036421;28;20506;-75
2022/10/20 06:21:01;;;;;;;6.33;2.43;;;12.40;99.90;;;;;;5018218;28;20445;-74
2022/10/20 06:23:28;;;;;;;7.13;2.93;;;12.40;99.90;;;;;;5032911;28;20561;-75
2022/10/20 06:25:55;;;;;;;4.23;2.23;;;12.40;99.90;;;;;;5036813;28;20490;-76
2022/10/20 06:28:22;;;;;;;6.17;3.43;;;12.40;99.90;;;;;;5035174;28;20444;-75
2022/10/20 06:30:50;;;;;;;4.93;2.27;;;12.40;99.90;;;;;;5035125;28;20518;-76
2022/10/20 06:33:17;;;;;;;4.50;2.13;;;12.50;99.90;;;;;;5029463;28;20448;-76
2022/10/20 06:35:44;;;;;;;5.70;2.73;;;12.50;99.90;;;;;;5032045;28;20991;-76
2022/10/20 06:38:11;;;;;;;7.47;2.93;;;12.50;99.90;;;;;;5032226;28;20498;-75
2022/10/20 06:40:38;;;;;;;5.70;3.30;;;12.50;99.90;;;;;;5037570;28;20505;-75
2022/10/20 06:43:05;;;;;;;4.37;2.77;;;12.50;99.90;;;;;;5037039;28;20546;-75
2022/10/20 06:45:32;;;;;;;6.57;2.50;;;12.70;99.90;;;;;;5036834;28;20444;-76
2022/10/20 06:48:00;;;;;;;4.43;3.23;;;12.70;99.90;;;;;;5036201;28;20894;-74
2022/10/20 06:50:27;;;;;;;4.00;2.00;;;12.70;99.90;;;;;;5038733;28;20954;-76
2022/10/20 06:52:54;;;;;;;5.10;2.30;;;12.60;99.90;;;;;;5037764;28;20514;-76
2022/10/20 06:55:21;;;;;;;5.13;2.60;;;12.60;99.90;;;;;;5032789;28;20460;-76
2022/10/20 06:57:48;;;;;;;5.50;3.10;;;12.60;99.90;;;;;;5037190;28;20518;-76
2022/10/20 07:00:15;;;;;;;6.13;3.03;;;12.70;99.90;;;;;;5033598;28;20209;-75
2022/10/20 07:02:42;;;;;;;3.43;2.30;;;12.70;99.90;;;;;;5036064;28;20518;-75
2022/10/20 07:05:11;;;;;;;4.70;1.80;;;12.60;99.90;;;;;;5035454;28;20449;-76
2022/10/20 07:07:37;;;;;;;8.43;2.77;;;12.60;99.90;;;;;;5037437;28;20444;-75
2022/10/20 07:10:05;;;;;;;6.03;2.60;;;12.50;99.90;;;;;;5032956;28;20961;-75
2022/10/20 07:12:32;;;;;;;5.10;2.57;;;12.60;99.90;;;;;;5035888;28;20448;-75
2022/10/20 07:14:59;;;;;;;3.90;2.97;;;12.60;99.90;;;;;;5034662;28;20475;-75
2022/10/20 07:17:28;;;;;;;5.97;2.37;;;12.60;99.90;;;;;;5038866;28;20452;-74
2022/10/20 07:19:55;;;;;;;6.17;2.27;;;12.60;99.90;;;;;;5035691;28;20456;-74
2022/10/20 07:22:23;;;;;;;5.50;2.40;;;12.60;99.90;;;;;;5039201;28;20879;-74
2022/10/20 07:24:50;;;;;;;3.13;1.90;;;12.80;99.90;;;;;;5038693;28;20492;-74
2022/10/20 07:27:17;;;;;;;6.23;2.30;;;12.80;99.90;;;;;;5038411;28;20440;-74
2022/10/20 07:29:44;;;;;;;4.20;2.20;;;12.90;99.90;;;;;;5035326;28;20896;-74
2022/10/20 07:32:11;;;;;;;2.60;1.70;;;12.90;99.90;;;;;;5037718;28;20448;-74
2022/10/20 07:34:38;;;;;;;6.27;2.17;;;12.90;99.90;;;;;;5036469;28;20452;-74
2022/10/20 07:37:05;;;;;;;6.47;1.87;;;13.00;99.90;;;;;;5038389;28;20452;-74
2022/10/20 07:39:33;;;;;;;4.70;2.20;;;13.00;99.90;;;;;;5037049;28;20468;-74
2022/10/20 07:42:00;;;;;;;5.00;1.97;;;13.00;99.90;;;;;;5038418;28;20448;-75
2022/10/20 07:44:27;;;;;;;8.10;1.80;;;13.10;99.90;;;;;;5035011;28;20487;-75
2022/10/20 07:46:54;;;;;;;5.23;2.13;;;13.20;99.90;;;;;;5038245;28;20445;-74
2022/10/20 07:49:21;;;;;;;5.13;2.23;;;13.40;99.90;;;;;;5036789;28;21072;-74
2022/10/20 07:51:48;;;;;;;2.57;1.70;;;13.40;99.90;;;;;;5016713;28;20445;-75
2022/10/20 07:54:18;;;;;;;3.00;1.87;;;13.30;99.90;;;;;;5022686;28;20526;-74
2022/10/20 07:56:48;;;;;;;6.07;2.10;;;13.40;99.90;;;;;;5038691;28;20444;-74
2022/10/20 07:59:15;;;;;;;3.23;1.70;;;13.50;99.90;;;;;;5033999;28;20813;-75
2022/10/20 08:01:42;;;;;;;5.03;2.40;;;13.50;99.90;;;;;;5037033;28;20456;-74
2022/10/20 08:04:09;;;;;;;4.83;1.50;;;13.60;99.90;;;;;;5035022;28;20515;-75
2022/10/20 08:06:36;;;;;;;2.33;1.30;;;13.60;99.90;;;;;;5038281;28;20511;-76
2022/10/20 08:09:04;;;;;;;6.80;4.30;;;13.70;99.90;;;;;;5035864;28;20456;-75
2022/10/20 08:11:31;;;;;;;3.93;2.70;;;13.90;99.90;;;;;;5037040;28;20537;-75
2022/10/20 08:13:59;;;;;;;2.53;1.67;;;14.00;99.90;;;;;;5033195;28;20483;-75
2022/10/20 08:16:26;;;;;;;4.40;2.50;;;14.10;99.90;;;;;;5035390;28;20754;-74
2022/10/20 08:18:53;;;;;;;3.60;1.95;;;14.20;99.90;;;;;;5046744;28;20584;-75
2022/10/20 08:21:22;;;;;;;2.10;1.10;;;14.10;99.90;;;;;;5036167;28;20276;-75
2022/10/20 08:23:50;;;;;;;1.80;1.20;;;14.20;99.90;;;;;;5033138;28;20488;-74
2022/10/20 08:26:19;;;;;;;2.40;1.83;;;14.30;99.90;;;;;;5035537;28;20467;-75
2022/10/20 08:28:46;;;;;;;2.50;1.30;;;14.40;99.90;;;;;;5034224;28;20456;-75
2022/10/20 08:31:15;;;;;;;4.43;1.50;;;14.40;99.90;;;;;;5036421;28;20456;-75
2022/10/20 08:33:42;;;;;;;2.73;1.60;;;14.40;99.90;;;;;;5030861;28;20930;-75
2022/10/20 08:36:11;;;;;;;2.30;1.60;;;14.50;99.90;;;;;;5034908;28;20452;-77
2022/10/20 08:38:38;;;;;;;4.00;1.30;;;14.50;99.90;;;;;;5033408;28;20540;-76
2022/10/20 08:41:13;;;;;;;3.83;1.70;;;14.60;99.90;;;;;;5037319;28;20437;-76
2022/10/20 08:43:42;;;;;;;2.70;1.53;;;14.60;99.90;;;;;;5035172;28;21009;-77
2022/10/20 08:46:15;;;;;;;1.97;1.10;;;14.60;99.90;;;;;;5041486;28;20444;-76
2022/10/20 08:48:44;;;;;;;2.03;1.30;;;14.70;99.90;;;;;;5038712;28;20460;-77
2022/10/20 08:51:18;;;;;;;2.83;1.30;;;14.70;99.90;;;;;;5037967;28;20530;-77
2022/10/20 08:53:46;;;;;;;2.30;1.53;;;14.90;99.90;;;;;;5031546;28;20498;-77
2022/10/20 08:56:15;;;;;;;2.10;1.30;;;14.90;99.90;;;;;;5036307;28;20521;-77
2022/10/20 08:58:43;;;;;;;2.10;1.90;;;15.00;99.90;;;;;;5038443;28;20440;-76
2022/10/20 09:01:20;;;;;;;2.43;1.10;;;15.00;99.90;;;;;;5038577;28;20476;-76
2022/10/20 09:03:53;;;;;;;3.17;2.87;;;15.00;99.90;;;;;;5038208;28;20488;-76
2022/10/20 09:06:20;;;;;;;3.50;1.60;;;15.10;99.90;;;;;;5036136;28;20455;-76
2022/10/20 09:08:47;;;;;;;3.30;2.67;;;15.20;99.90;;;;;;5031728;28;20452;-75
2022/10/20 09:11:18;;;;;;;14.70;8.23;;;15.20;99.90;;;;;;5018717;28;20444;-76
2022/10/20 09:13:46;;;;;;;7.83;4.27;;;15.30;99.90;;;;;;5030118;28;20904;-75
2022/10/20 09:16:21;;;;;;;3.07;1.50;;;15.50;99.90;;;;;;5035104;28;20512;-76
2022/10/20 09:18:53;;;;;;;2.80;1.60;;;15.70;99.90;;;;;;5030991;28;20463;-75
2022/10/20 09:21:21;;;;;;;2.20;1.10;;;15.70;99.90;;;;;;5035121;28;20471;-75
2022/10/20 09:23:52;;;;;;;2.40;1.20;;;15.70;99.90;;;;;;5035766;28;20488;-75
2022/10/20 09:26:21;;;;;;;2.53;1.10;;;15.80;99.90;;;;;;5034334;28;20506;-75
2022/10/20 09:28:50;;;;;;;2.73;1.20;;;15.80;99.90;;;;;;5030068;28;20447;-76
2022/10/20 09:31:30;;;;;;;2.03;1.10;;;15.90;98.80;;;;;;5034975;28;20903;-77
2022/10/20 09:33:57;;;;;;;4.00;1.23;;;16.00;93.80;;;;;;5031660;28;20509;-75
2022/10/20 09:36:29;;;;;;;2.90;1.37;;;16.00;92.20;;;;;;5035087;28;20452;-77
2022/10/20 09:38:57;;;;;;;1.50;1.20;;;16.00;88.00;;;;;;5032956;28;20456;-76
2022/10/20 09:41:27;;;;;;;3.73;1.53;;;16.00;94.00;;;;;;5037893;28;20953;-76
2022/10/20 09:43:56;;;;;;;2.53;1.30;;;16.10;95.30;;;;;;5022034;28;20484;-77
2022/10/20 09:46:27;;;;;;;2.30;1.30;;;16.10;99.90;;;;;;5036612;28;20436;-77
2022/10/20 09:48:55;;;;;;;1.80;1.10;;;16.20;91.60;;;;;;5043081;28;20520;-77
2022/10/20 09:51:25;;;;;;;2.27;1.10;;;16.20;82.30;;;;;;5038680;28;20444;-76
2022/10/20 09:53:55;;;;;;;2.57;1.20;;;16.20;83.40;;;;;;5022434;28;20820;-77
2022/10/20 09:56:27;;;;;;;3.40;1.33;;;16.30;80.40;;;;;;5045570;28;21087;-77
2022/10/20 09:58:56;;;;;;;3.60;2.10;;;16.40;92.20;;;;;;5029072;28;20624;-77
2022/10/20 10:01:24;;;;;;;3.93;1.30;;;16.40;84.20;;;;;;5050750;28;20247;-77
2022/10/20 10:03:54;;;;;;;2.80;1.50;;;16.40;79.70;;;;;;5046962;28;20551;-76
2022/10/20 10:06:41;;;;;;;2.90;1.60;;;16.40;77.00;;;;;;5033398;28;20491;-76
2022/10/20 10:09:25;;;;;;;1.57;1.40;;;16.50;76.40;;;;;;5035936;28;20448;-76
2022/10/20 10:11:59;;;;;;;2.33;1.80;;;16.50;82.60;;;;;;5022019;28;20462;-75
2022/10/20 10:14:28;;;;;;;2.90;1.50;;;16.50;79.40;;;;;;5049424;28;20546;-75
2022/10/20 10:16:57;;;;;;;1.87;0.93;;;16.60;82.70;;;;;;5031976;28;20542;-75
2022/10/20 10:19:27;;;;;;;1.60;1.10;;;16.70;74.20;;;;;;5057032;28;20454;-75
2022/10/20 10:21:56;;;;;;;2.77;1.20;;;16.80;53.50;;;;;;5025818;28;20497;-75
2022/10/20 10:24:40;;;;;;;2.60;1.70;;;17.00;59.10;;;;;;5047197;28;21038;-75
2022/10/20 10:27:20;;;;;;;2.20;1.43;;;17.10;48.50;;;;;;5047934;28;20443;-74
2022/10/20 10:29:47;;;;;;;3.23;1.20;;;17.10;38.60;;;;;;5037332;28;20448;-76
2022/10/20 10:32:17;;;;;;;4.77;1.40;;;17.20;42.30;;;;;;5035774;28;20444;-78
2022/10/20 10:35:09;;;;;;;1.90;1.30;;;17.20;35.40;;;;;;5039537;28;20440;-79
2022/10/20 10:37:39;;;;;;;2.20;1.13;;;17.30;30.60;;;;;;5030545;28;20518;-78
2022/10/20 10:40:15;;;;;;;2.53;0.90;;;17.30;40.10;;;;;;5037234;28;20502;-78
2022/10/20 10:43:17;;;;;;;2.50;1.13;;;17.40;30.10;;;;;;5041194;28;20949;-78
2022/10/20 10:45:53;;;;;;;2.00;1.13;;;17.60;22.60;;;;;;5017965;28;20488;-78
2022/10/20 10:48:59;;;;;;;1.63;1.00;;;17.80;10.60;;;;;;5048863;28;20520;-78
2022/10/20 10:51:37;;;;;;;1.50;0.90;;;17.80;5.80;;;;;;5039549;28;20440;-79
2022/10/20 10:54:22;;;;;;;1.60;1.00;;;17.80;4.50;;;;;;5033742;28;20452;-78
2022/10/20 10:56:51;;;;;;;1.60;0.90;;;17.80;1.00;;;;;;5036549;28;20444;-79
2022/10/20 10:59:22;;;;;;;1.30;0.97;;;17.60;5.10;;;;;;5035277;28;20460;-77
2022/10/20 11:02:18;;;;;;;2.05;1.00;;;17.50;22.80;;;;;;5034033;28;20514;-78
2022/10/20 11:05:25;;;;;;;1.20;0.90;;;17.60;24.90;;;;;;4994532;28;20210;-78
2022/10/20 11:08:03;;;;;;;1.20;0.90;;;17.50;10.30;;;;;;5005827;28;20527;-80
2022/10/20 11:10:39;;;;;;;1.73;0.93;;;17.60;16.00;;;;;;5039723;28;20455;-80
2022/10/20 11:13:22;;;;;;;1.97;1.00;;;17.70;14.60;;;;;;5036196;28;20464;-78
2022/10/20 11:16:03;;;;;;;1.30;0.80;;;17.60;11.60;;;;;;5038782;28;20559;-79
2022/10/20 11:18:55;;;;;;;1.93;0.80;;;17.60;21.80;;;;;;5031647;28;20456;-79
2022/10/20 11:21:29;;;;;;;2.20;1.03;;;17.60;26.40;;;;;;5040262;28;20452;-79
2022/10/20 11:24:35;;;;;;;34.07;23.53;;;17.80;23.50;;;;;;5036063;28;20888;-79
2022/10/20 11:27:07;;;;;;;4.50;2.50;;;17.90;11.50;;;;;;5034140;28;20452;-79
2022/10/20 11:29:37;;;;;;;2.27;1.40;;;17.90;10.10;;;;;;5038203;28;20452;-81
2022/10/20 11:32:16;;;;;;;1.77;1.00;;;18.00;9.60;;;;;;5039559;28;20481;-79
2022/10/20 11:34:52;;;;;;;2.80;1.40;;;18.10;5.50;;;;;;5046398;28;20494;-80
2022/10/20 11:37:25;;;;;;;2.10;1.00;;;17.80;11.30;;;;;;5041360;28;20509;-78
2022/10/20 11:39:58;;;;;;;1.50;1.30;;;17.90;15.90;;;;;;5045290;28;20452;-78
2022/10/20 11:42:37;;;;;;;1.33;1.10;;;17.80;20.20;;;;;;5042084;28;20460;-79
2022/10/20 11:45:25;;;;;;;1.90;1.00;;;17.80;21.20;;;;;;5044332;28;20488;-77
2022/10/20 11:48:00;;;;;;;1.40;0.90;;;17.70;25.60;;;;;;5013278;28;20519;-77
2022/10/20 11:50:29;;;;;;;2.30;1.00;;;17.60;31.30;;;;;;5012755;28;20544;-78
2022/10/20 11:53:35;;;;;;;1.40;1.03;;;17.50;44.10;;;;;;5024599;28;20726;-78
2022/10/20 11:56:28;;;;;;;1.53;0.90;;;17.60;41.50;;;;;;5029545;28;20957;-78
2022/10/20 11:59:20;;;;;;;1.37;0.90;;;17.60;30.00;;;;;;5028488;28;20460;-78
2022/10/20 12:02:10;;;;;;;2.07;1.00;;;17.70;31.10;;;;;;5034043;28;20478;-78
2022/10/20 12:05:15;;;;;;;2.87;1.00;;;17.80;26.10;;;;;;5034973;28;20549;-77
2022/10/20 12:08:07;;;;;;;1.30;0.90;;;17.70;37.30;;;;;;5016028;28;20460;-77
2022/10/20 12:10:40;;;;;;;1.50;0.90;;;17.70;34.20;;;;;;5034690;28;20455;-77
2022/10/20 12:13:32;;;;;;;3.80;1.07;;;17.70;35.90;;;;;;5032009;28;20526;-77
2022/10/20 12:15:59;;;;;;;1.10;0.90;;;17.70;37.40;;;;;;5031236;28;20472;-77
2022/10/20 12:18:29;;;;;;;1.70;1.00;;;17.70;38.50;;;;;;5031439;28;20769;-78
2022/10/20 12:21:00;;;;;;;1.57;0.90;;;17.80;36.60;;;;;;5036298;28;20884;-77
2022/10/20 12:24:04;;;;;;;1.50;1.00;;;17.80;29.80;;;;;;5038036;28;20452;-78
2022/10/20 12:27:05;;;;;;;1.57;1.00;;;17.80;31.70;;;;;;5035556;28;20485;-78
2022/10/20 12:30:05;;;;;;;2.53;0.90;;;17.70;32.90;;;;;;5031341;28;20883;-77
2022/10/20 12:32:41;;;;;;;2.03;0.90;;;17.70;37.30;;;;;;5033427;28;20895;-78
2022/10/20 12:35:28;;;;;;;2.00;1.20;;;17.70;38.10;;;;;;5029961;28;20520;-77
2022/10/20 12:37:57;;;;;;;3.50;0.97;;;17.70;36.00;;;;;;5033636;28;20896;-77
2022/10/20 12:40:29;;;;;;;1.10;0.80;;;17.80;36.10;;;;;;5034130;28;20464;-77
2022/10/20 12:43:00;;;;;;;1.13;0.83;;;17.80;39.40;;;;;;5031486;28;20460;-77
2022/10/20 12:45:39;;;;;;;1.47;1.00;;;17.90;36.70;;;;;;5033213;28;20487;-76
2022/10/20 12:48:09;;;;;;;1.70;1.00;;;17.80;36.50;;;;;;5026618;28;20454;-77
2022/10/20 12:50:38;;;;;;;1.23;0.80;;;17.70;43.30;;;;;;5031701;28;20452;-78
2022/10/20 12:53:19;;;;;;;1.80;0.90;;;17.70;51.60;;;;;;5028621;28;20846;-77
2022/10/20 12:55:54;;;;;;;1.27;0.83;;;17.70;62.50;;;;;;5033187;28;20440;-77
2022/10/20 12:58:31;;;;;;;2.50;0.90;;;17.70;73.10;;;;;;5032384;28;20811;-77
2022/10/20 13:01:10;;;;;;;2.20;1.50;;;17.70;91.30;;;;;;5038997;28;20444;-79
2022/10/20 13:03:45;;;;;;;1.60;1.00;;;17.50;99.90;;;;;;5037709;28;21056;-79
2022/10/20 13:06:42;;;;;;;2.40;1.10;;;17.50;99.90;;;;;;5037654;28;20472;-78
2022/10/20 13:09:27;;;;;;;1.67;1.10;;;17.30;99.90;;;;;;4995811;28;20457;-79
2022/10/20 13:12:05;;;;;;;2.40;1.00;;;17.20;99.90;;;;;;5036219;28;20444;-79